Terminal Aerodrome Forecast
Issued by NWS Charleston, WV

Current Version | Previous Version | Graphics & Text | Print | Product List | Glossary On
Versions: 1 2 3 4 5 6 7 8 9 10 11 12 13 14 15 16 17 18 19 20
000
FTUS41 KRLX 100535
TAFPKB
TAF
KPKB 100535Z 1006/1106 25009G15KT P6SM OVC015
     FM101700 23009G18KT P6SM BKN060
     FM102000 22009G16KT P6SM SCT090
     FM102300 22007KT P6SM BKN070=

USA.gov is the U.S. government's official web portal to all federal, state and local government web resources and services.